sensor_id;sensor_type;location;lat;lon;timestamp;temperature;humidity
38464;DHT22;24243;51.956;5.902;2022-10-30T00:00:39;22.20;61.70
38464;DHT22;24243;51.956;5.902;2022-10-30T00:03:05;22.20;61.70
38464;DHT22;24243;51.956;5.902;2022-10-30T00:05:30;22.20;61.70
38464;DHT22;24243;51.956;5.902;2022-10-30T00:07:57;22.20;61.70
38464;DHT22;24243;51.956;5.902;2022-10-30T00:10:23;22.20;61.70
38464;DHT22;24243;51.956;5.902;2022-10-30T00:12:48;22.20;61.70
38464;DHT22;24243;51.956;5.902;2022-10-30T00:15:14;22.20;61.60
38464;DHT22;24243;51.956;5.902;2022-10-30T00:17:39;22.20;61.60
38464;DHT22;24243;51.956;5.902;2022-10-30T00:20:05;22.10;61.60
38464;DHT22;24243;51.956;5.902;2022-10-30T00:22:31;22.20;61.60
38464;DHT22;24243;51.956;5.902;2022-10-30T00:24:57;22.20;61.60
38464;DHT22;24243;51.956;5.902;2022-10-30T00:27:22;22.10;61.50
38464;DHT22;24243;51.956;5.902;2022-10-30T00:29:48;22.10;61.50
38464;DHT22;24243;51.956;5.902;2022-10-30T00:32:13;22.10;61.50
38464;DHT22;24243;51.956;5.902;2022-10-30T00:34:39;22.10;61.40
38464;DHT22;24243;51.956;5.902;2022-10-30T00:37:05;22.10;61.40
38464;DHT22;24243;51.956;5.902;2022-10-30T00:39:30;22.10;61.40
38464;DHT22;24243;51.956;5.902;2022-10-30T00:41:56;22.10;61.40
38464;DHT22;24243;51.956;5.902;2022-10-30T00:46:56;22.10;61.30
38464;DHT22;24243;51.956;5.902;2022-10-30T00:49:23;22.10;61.30
38464;DHT22;24243;51.956;5.902;2022-10-30T00:51:50;22.10;61.30
38464;DHT22;24243;51.956;5.902;2022-10-30T00:54:17;22.00;61.30
38464;DHT22;24243;51.956;5.902;2022-10-30T00:56:44;22.00;61.30
38464;DHT22;24243;51.956;5.902;2022-10-30T00:59:12;22.00;61.30
38464;DHT22;24243;51.956;5.902;2022-10-30T01:01:41;22.00;61.20
38464;DHT22;24243;51.956;5.902;2022-10-30T01:04:07;22.00;61.20
38464;DHT22;24243;51.956;5.902;2022-10-30T01:06:34;22.00;61.20
38464;DHT22;24243;51.956;5.902;2022-10-30T01:09:01;22.00;61.20
38464;DHT22;24243;51.956;5.902;2022-10-30T01:11:27;22.00;61.10
38464;DHT22;24243;51.956;5.902;2022-10-30T01:13:53;22.00;61.10
38464;DHT22;24243;51.956;5.902;2022-10-30T01:24:36;21.90;61.00
38464;DHT22;24243;51.956;5.902;2022-10-30T01:27:17;21.90;61.00
38464;DHT22;24243;51.956;5.902;2022-10-30T01:32:18;21.90;61.00
38464;DHT22;24243;51.956;5.902;2022-10-30T01:37:32;21.90;60.90
38464;DHT22;24243;51.956;5.902;2022-10-30T01:40:08;21.90;60.90
38464;DHT22;24243;51.956;5.902;2022-10-30T01:45:05;21.90;60.90
38464;DHT22;24243;51.956;5.902;2022-10-30T01:55:17;21.90;60.80
38464;DHT22;24243;51.956;5.902;2022-10-30T02:00:31;21.90;60.80
38464;DHT22;24243;51.956;5.902;2022-10-30T02:02:57;21.80;60.70
38464;DHT22;24243;51.956;5.902;2022-10-30T02:05:27;21.80;60.70
38464;DHT22;24243;51.956;5.902;2022-10-30T02:07:54;21.80;60.70
38464;DHT22;24243;51.956;5.902;2022-10-30T02:10:20;21.80;60.70
38464;DHT22;24243;51.956;5.902;2022-10-30T02:12:45;21.80;60.70
38464;DHT22;24243;51.956;5.902;2022-10-30T02:15:11;21.80;60.70
38464;DHT22;24243;51.956;5.902;2022-10-30T02:17:37;21.80;60.70
38464;DHT22;24243;51.956;5.902;2022-10-30T02:20:05;21.80;60.70
38464;DHT22;24243;51.956;5.902;2022-10-30T02:22:31;21.80;60.60
38464;DHT22;24243;51.956;5.902;2022-10-30T02:24:56;21.80;60.60
38464;DHT22;24243;51.956;5.902;2022-10-30T02:27:22;21.80;60.50
38464;DHT22;24243;51.956;5.902;2022-10-30T02:29:48;21.80;60.50
38464;DHT22;24243;51.956;5.902;2022-10-30T02:32:13;21.80;60.50
38464;DHT22;24243;51.956;5.902;2022-10-30T02:34:39;21.80;60.50
38464;DHT22;24243;51.956;5.902;2022-10-30T02:37:04;21.80;60.50
38464;DHT22;24243;51.956;5.902;2022-10-30T02:39:30;21.80;60.50
38464;DHT22;24243;51.956;5.902;2022-10-30T02:41:56;21.80;60.50
38464;DHT22;24243;51.956;5.902;2022-10-30T02:44:21;21.80;60.50
38464;DHT22;24243;51.956;5.902;2022-10-30T02:46:47;21.70;60.40
38464;DHT22;24243;51.956;5.902;2022-10-30T02:49:12;21.70;60.40
38464;DHT22;24243;51.956;5.902;2022-10-30T02:51:38;21.70;60.30
38464;DHT22;24243;51.956;5.902;2022-10-30T02:54:03;21.70;60.30
38464;DHT22;24243;51.956;5.902;2022-10-30T02:56:29;21.70;60.30
38464;DHT22;24243;51.956;5.902;2022-10-30T02:58:55;21.70;60.30
38464;DHT22;24243;51.956;5.902;2022-10-30T03:01:20;21.70;60.30
38464;DHT22;24243;51.956;5.902;2022-10-30T03:03:46;21.70;60.30
38464;DHT22;24243;51.956;5.902;2022-10-30T03:06:12;21.70;60.30
38464;DHT22;24243;51.956;5.902;2022-10-30T03:08:40;21.70;60.20
38464;DHT22;24243;51.956;5.902;2022-10-30T03:11:07;21.70;60.20
38464;DHT22;24243;51.956;5.902;2022-10-30T03:13:33;21.60;60.20
38464;DHT22;24243;51.956;5.902;2022-10-30T03:16:02;21.60;60.10
38464;DHT22;24243;51.956;5.902;2022-10-30T03:18:28;21.70;60.20
38464;DHT22;24243;51.956;5.902;2022-10-30T03:20:55;21.70;60.20
38464;DHT22;24243;51.956;5.902;2022-10-30T03:23:20;21.70;60.20
38464;DHT22;24243;51.956;5.902;2022-10-30T03:25:46;21.60;60.10
38464;DHT22;24243;51.956;5.902;2022-10-30T03:28:11;21.70;60.10
38464;DHT22;24243;51.956;5.902;2022-10-30T03:30:37;21.60;60.00
38464;DHT22;24243;51.956;5.902;2022-10-30T03:33:02;21.70;60.10
38464;DHT22;24243;51.956;5.902;2022-10-30T03:35:28;21.60;60.00
38464;DHT22;24243;51.956;5.902;2022-10-30T03:37:53;21.60;60.00
38464;DHT22;24243;51.956;5.902;2022-10-30T03:40:21;21.60;60.00
38464;DHT22;24243;51.956;5.902;2022-10-30T03:42:46;21.60;60.00
38464;DHT22;24243;51.956;5.902;2022-10-30T03:45:12;21.60;60.00
38464;DHT22;24243;51.956;5.902;2022-10-30T03:47:40;21.60;60.00
38464;DHT22;24243;51.956;5.902;2022-10-30T03:50:06;21.60;60.00
38464;DHT22;24243;51.956;5.902;2022-10-30T03:52:32;21.60;60.00
38464;DHT22;24243;51.956;5.902;2022-10-30T03:54:57;21.60;60.00
38464;DHT22;24243;51.956;5.902;2022-10-30T03:57:23;21.60;59.90
38464;DHT22;24243;51.956;5.902;2022-10-30T03:59:48;21.60;59.90
38464;DHT22;24243;51.956;5.902;2022-10-30T04:02:14;21.60;59.90
38464;DHT22;24243;51.956;5.902;2022-10-30T04:04:39;21.60;59.90
38464;DHT22;24243;51.956;5.902;2022-10-30T04:07:05;21.60;59.90
38464;DHT22;24243;51.956;5.902;2022-10-30T04:09:31;21.60;59.90
38464;DHT22;24243;51.956;5.902;2022-10-30T04:11:56;21.60;59.90
38464;DHT22;24243;51.956;5.902;2022-10-30T04:14:22;21.60;59.90
38464;DHT22;24243;51.956;5.902;2022-10-30T04:16:47;21.50;59.90
38464;DHT22;24243;51.956;5.902;2022-10-30T04:19:13;21.50;59.80
38464;DHT22;24243;51.956;5.902;2022-10-30T04:21:38;21.50;59.80
38464;DHT22;24243;51.956;5.902;2022-10-30T04:24:04;21.60;59.90
38464;DHT22;24243;51.956;5.902;2022-10-30T04:26:30;21.60;59.90
38464;DHT22;24243;51.956;5.902;2022-10-30T04:28:55;21.50;59.80
38464;DHT22;24243;51.956;5.902;2022-10-30T04:31:21;21.50;59.80
38464;DHT22;24243;51.956;5.902;2022-10-30T04:33:46;21.50;59.80
38464;DHT22;24243;51.956;5.902;2022-10-30T04:36:12;21.50;59.80
38464;DHT22;24243;51.956;5.902;2022-10-30T04:38:38;21.50;59.80
38464;DHT22;24243;51.956;5.902;2022-10-30T04:41:03;21.50;59.80
38464;DHT22;24243;51.956;5.902;2022-10-30T04:43:29;21.50;59.80
38464;DHT22;24243;51.956;5.902;2022-10-30T04:45:54;21.50;59.80
38464;DHT22;24243;51.956;5.902;2022-10-30T04:48:20;21.50;59.80
38464;DHT22;24243;51.956;5.902;2022-10-30T04:50:45;21.50;59.70
38464;DHT22;24243;51.956;5.902;2022-10-30T04:53:15;21.50;59.70
38464;DHT22;24243;51.956;5.902;2022-10-30T04:55:41;21.50;60.40
38464;DHT22;24243;51.956;5.902;2022-10-30T04:58:07;21.50;59.70
38464;DHT22;24243;51.956;5.902;2022-10-30T05:00:33;21.40;59.70
38464;DHT22;24243;51.956;5.902;2022-10-30T05:02:59;21.50;59.70
38464;DHT22;24243;51.956;5.902;2022-10-30T05:05:25;21.50;59.70
38464;DHT22;24243;51.956;5.902;2022-10-30T05:07:51;21.50;59.70
38464;DHT22;24243;51.956;5.902;2022-10-30T05:10:17;21.50;59.70
38464;DHT22;24243;51.956;5.902;2022-10-30T05:12:43;21.40;59.60
38464;DHT22;24243;51.956;5.902;2022-10-30T05:15:09;21.50;59.70
38464;DHT22;24243;51.956;5.902;2022-10-30T05:17:34;21.40;59.60
38464;DHT22;24243;51.956;5.902;2022-10-30T05:20:00;21.40;59.60
38464;DHT22;24243;51.956;5.902;2022-10-30T05:22:26;21.40;59.60
38464;DHT22;24243;51.956;5.902;2022-10-30T05:24:51;21.40;59.60
38464;DHT22;24243;51.956;5.902;2022-10-30T05:27:17;21.40;59.60
38464;DHT22;24243;51.956;5.902;2022-10-30T05:29:42;21.40;59.60
38464;DHT22;24243;51.956;5.902;2022-10-30T05:32:08;21.40;59.60
38464;DHT22;24243;51.956;5.902;2022-10-30T05:34:33;21.40;59.60
38464;DHT22;24243;51.956;5.902;2022-10-30T05:36:59;21.40;59.60
38464;DHT22;24243;51.956;5.902;2022-10-30T05:39:25;21.40;59.60
38464;DHT22;24243;51.956;5.902;2022-10-30T05:41:51;21.40;59.60
38464;DHT22;24243;51.956;5.902;2022-10-30T05:44:17;21.40;59.60
38464;DHT22;24243;51.956;5.902;2022-10-30T05:46:42;21.40;59.60
38464;DHT22;24243;51.956;5.902;2022-10-30T05:49:08;21.40;59.60
38464;DHT22;24243;51.956;5.902;2022-10-30T05:51:34;21.40;59.50
38464;DHT22;24243;51.956;5.902;2022-10-30T05:54:00;21.40;59.60
38464;DHT22;24243;51.956;5.902;2022-10-30T05:56:25;21.40;59.60
38464;DHT22;24243;51.956;5.902;2022-10-30T05:58:51;21.40;59.50
38464;DHT22;24243;51.956;5.902;2022-10-30T06:01:17;21.30;59.50
38464;DHT22;24243;51.956;5.902;2022-10-30T06:03:42;21.30;59.50
38464;DHT22;24243;51.956;5.902;2022-10-30T06:06:08;21.40;59.50
38464;DHT22;24243;51.956;5.902;2022-10-30T06:08:33;21.30;59.50
38464;DHT22;24243;51.956;5.902;2022-10-30T06:10:59;21.40;59.50
38464;DHT22;24243;51.956;5.902;2022-10-30T06:13:25;21.30;59.50
38464;DHT22;24243;51.956;5.902;2022-10-30T06:15:52;21.30;59.40
38464;DHT22;24243;51.956;5.902;2022-10-30T06:18:18;21.30;59.40
38464;DHT22;24243;51.956;5.902;2022-10-30T06:20:44;21.30;59.40
38464;DHT22;24243;51.956;5.902;2022-10-30T06:23:09;21.40;59.40
38464;DHT22;24243;51.956;5.902;2022-10-30T06:25:35;21.40;59.40
38464;DHT22;24243;51.956;5.902;2022-10-30T06:28:01;21.30;59.30
38464;DHT22;24243;51.956;5.902;2022-10-30T06:30:26;21.40;59.30
38464;DHT22;24243;51.956;5.902;2022-10-30T06:32:56;21.30;59.30
38464;DHT22;24243;51.956;5.902;2022-10-30T06:35:22;21.30;59.30
38464;DHT22;24243;51.956;5.902;2022-10-30T06:37:48;21.40;59.30
38464;DHT22;24243;51.956;5.902;2022-10-30T06:40:13;21.40;59.20
38464;DHT22;24243;51.956;5.902;2022-10-30T06:42:43;21.30;59.20
38464;DHT22;24243;51.956;5.902;2022-10-30T06:45:09;21.30;59.20
38464;DHT22;24243;51.956;5.902;2022-10-30T06:47:35;21.30;59.20
38464;DHT22;24243;51.956;5.902;2022-10-30T06:50:01;21.30;59.10
38464;DHT22;24243;51.956;5.902;2022-10-30T06:52:27;21.30;59.10
38464;DHT22;24243;51.956;5.902;2022-10-30T06:54:52;21.30;59.10
38464;DHT22;24243;51.956;5.902;2022-10-30T06:57:18;21.30;59.10
38464;DHT22;24243;51.956;5.902;2022-10-30T06:59:43;21.30;59.10
38464;DHT22;24243;51.956;5.902;2022-10-30T07:02:09;21.30;59.00
38464;DHT22;24243;51.956;5.902;2022-10-30T07:04:35;21.30;59.00
38464;DHT22;24243;51.956;5.902;2022-10-30T07:07:01;21.40;59.00
38464;DHT22;24243;51.956;5.902;2022-10-30T07:09:26;21.40;59.00
38464;DHT22;24243;51.956;5.902;2022-10-30T07:11:52;21.40;59.00
38464;DHT22;24243;51.956;5.902;2022-10-30T07:14:17;21.40;58.90
38464;DHT22;24243;51.956;5.902;2022-10-30T07:16:43;21.40;58.90
38464;DHT22;24243;51.956;5.902;2022-10-30T07:19:08;21.50;58.90
38464;DHT22;24243;51.956;5.902;2022-10-30T07:21:34;21.50;58.90
38464;DHT22;24243;51.956;5.902;2022-10-30T07:24:00;21.50;58.80
38464;DHT22;24243;51.956;5.902;2022-10-30T07:26:25;21.50;58.80
38464;DHT22;24243;51.956;5.902;2022-10-30T07:28:51;21.60;58.80
38464;DHT22;24243;51.956;5.902;2022-10-30T07:31:16;21.60;58.70
38464;DHT22;24243;51.956;5.902;2022-10-30T07:33:42;21.60;58.70
38464;DHT22;24243;51.956;5.902;2022-10-30T07:36:07;21.60;58.70
38464;DHT22;24243;51.956;5.902;2022-10-30T07:38:33;21.60;58.70
38464;DHT22;24243;51.956;5.902;2022-10-30T07:40:59;21.60;58.70
38464;DHT22;24243;51.956;5.902;2022-10-30T07:43:24;21.60;58.70
38464;DHT22;24243;51.956;5.902;2022-10-30T07:45:50;21.60;58.60
38464;DHT22;24243;51.956;5.902;2022-10-30T07:48:15;21.70;58.60
38464;DHT22;24243;51.956;5.902;2022-10-30T07:50:41;21.70;58.60
38464;DHT22;24243;51.956;5.902;2022-10-30T07:53:07;21.70;58.60
38464;DHT22;24243;51.956;5.902;2022-10-30T07:55:32;21.70;58.50
38464;DHT22;24243;51.956;5.902;2022-10-30T07:57:58;21.80;58.50
38464;DHT22;24243;51.956;5.902;2022-10-30T08:00:23;21.80;58.40
38464;DHT22;24243;51.956;5.902;2022-10-30T08:02:49;21.80;58.40
38464;DHT22;24243;51.956;5.902;2022-10-30T08:05:15;21.90;58.40
38464;DHT22;24243;51.956;5.902;2022-10-30T08:07:44;21.80;58.40
38464;DHT22;24243;51.956;5.902;2022-10-30T08:10:10;21.90;58.40
38464;DHT22;24243;51.956;5.902;2022-10-30T08:12:35;21.90;58.30
38464;DHT22;24243;51.956;5.902;2022-10-30T08:15:02;22.00;58.30
38464;DHT22;24243;51.956;5.902;2022-10-30T08:17:28;22.00;58.20
38464;DHT22;24243;51.956;5.902;2022-10-30T08:19:53;22.10;58.20
38464;DHT22;24243;51.956;5.902;2022-10-30T08:22:21;22.20;58.10
38464;DHT22;24243;51.956;5.902;2022-10-30T08:24:47;22.20;58.00
38464;DHT22;24243;51.956;5.902;2022-10-30T08:27:12;22.20;58.00
38464;DHT22;24243;51.956;5.902;2022-10-30T08:29:38;22.20;57.90
38464;DHT22;24243;51.956;5.902;2022-10-30T08:32:04;22.30;57.90
38464;DHT22;24243;51.956;5.902;2022-10-30T08:34:29;22.30;57.80
38464;DHT22;24243;51.956;5.902;2022-10-30T08:36:56;22.40;57.80
38464;DHT22;24243;51.956;5.902;2022-10-30T08:39:22;22.40;57.80
38464;DHT22;24243;51.956;5.902;2022-10-30T08:41:48;22.50;57.80
38464;DHT22;24243;51.956;5.902;2022-10-30T08:44:13;22.50;57.70
38464;DHT22;24243;51.956;5.902;2022-10-30T08:46:39;22.60;57.70
38464;DHT22;24243;51.956;5.902;2022-10-30T08:49:05;22.60;57.60
38464;DHT22;24243;51.956;5.902;2022-10-30T08:51:31;22.70;57.60
38464;DHT22;24243;51.956;5.902;2022-10-30T08:53:56;22.80;57.60
38464;DHT22;24243;51.956;5.902;2022-10-30T08:56:22;22.80;57.70
38464;DHT22;24243;51.956;5.902;2022-10-30T08:58:49;22.90;57.70
38464;DHT22;24243;51.956;5.902;2022-10-30T09:01:14;22.90;57.80
38464;DHT22;24243;51.956;5.902;2022-10-30T09:03:40;22.90;57.80
38464;DHT22;24243;51.956;5.902;2022-10-30T09:06:07;23.00;57.90
38464;DHT22;24243;51.956;5.902;2022-10-30T09:08:33;23.00;57.90
38464;DHT22;24243;51.956;5.902;2022-10-30T09:10:58;23.10;58.00
38464;DHT22;24243;51.956;5.902;2022-10-30T09:13:24;23.10;58.00
38464;DHT22;24243;51.956;5.902;2022-10-30T09:15:50;23.10;58.00
38464;DHT22;24243;51.956;5.902;2022-10-30T09:18:16;23.20;58.00
38464;DHT22;24243;51.956;5.902;2022-10-30T09:20:41;23.20;58.00
38464;DHT22;24243;51.956;5.902;2022-10-30T09:23:07;23.20;58.00
38464;DHT22;24243;51.956;5.902;2022-10-30T09:25:33;23.30;58.10
38464;DHT22;24243;51.956;5.902;2022-10-30T09:27:58;23.30;58.10
38464;DHT22;24243;51.956;5.902;2022-10-30T09:30:24;23.40;58.10
38464;DHT22;24243;51.956;5.902;2022-10-30T09:32:53;23.40;58.10
38464;DHT22;24243;51.956;5.902;2022-10-30T09:35:19;23.40;58.10
38464;DHT22;24243;51.956;5.902;2022-10-30T09:37:44;23.40;58.10
38464;DHT22;24243;51.956;5.902;2022-10-30T09:40:11;23.40;58.10
38464;DHT22;24243;51.956;5.902;2022-10-30T09:42:44;23.40;58.10
38464;DHT22;24243;51.956;5.902;2022-10-30T09:45:20;23.40;58.10
38464;DHT22;24243;51.956;5.902;2022-10-30T09:48:00;23.40;58.10
38464;DHT22;24243;51.956;5.902;2022-10-30T09:50:33;23.40;58.10
38464;DHT22;24243;51.956;5.902;2022-10-30T09:59:18;23.50;58.00
38464;DHT22;24243;51.956;5.902;2022-10-30T10:06:10;23.60;57.90
38464;DHT22;24243;51.956;5.902;2022-10-30T10:08:38;23.60;57.90
38464;DHT22;24243;51.956;5.902;2022-10-30T10:11:24;23.60;57.80
38464;DHT22;24243;51.956;5.902;2022-10-30T10:13:51;23.60;57.90
38464;DHT22;24243;51.956;5.902;2022-10-30T10:18:48;23.60;57.90
38464;DHT22;24243;51.956;5.902;2022-10-30T10:21:25;23.60;58.00
38464;DHT22;24243;51.956;5.902;2022-10-30T10:23:55;23.60;58.00
38464;DHT22;24243;51.956;5.902;2022-10-30T10:26:26;23.60;58.10
38464;DHT22;24243;51.956;5.902;2022-10-30T10:49:56;23.50;58.00
38464;DHT22;24243;51.956;5.902;2022-10-30T10:52:36;23.60;58.10
38464;DHT22;24243;51.956;5.902;2022-10-30T10:55:12;23.50;58.10
38464;DHT22;24243;51.956;5.902;2022-10-30T10:57:39;23.50;58.10
38464;DHT22;24243;51.956;5.902;2022-10-30T11:00:07;23.50;58.10
38464;DHT22;24243;51.956;5.902;2022-10-30T11:05:17;23.60;58.10
38464;DHT22;24243;51.956;5.902;2022-10-30T11:07:46;23.50;58.00
38464;DHT22;24243;51.956;5.902;2022-10-30T11:10:13;23.60;58.10
38464;DHT22;24243;51.956;5.902;2022-10-30T11:12:39;23.60;58.00
38464;DHT22;24243;51.956;5.902;2022-10-30T11:15:14;23.60;58.00
38464;DHT22;24243;51.956;5.902;2022-10-30T11:17:51;23.60;57.90
38464;DHT22;24243;51.956;5.902;2022-10-30T11:20:20;23.60;57.90
38464;DHT22;24243;51.956;5.902;2022-10-30T11:22:48;23.70;57.90
38464;DHT22;24243;51.956;5.902;2022-10-30T11:25:18;23.70;57.90
38464;DHT22;24243;51.956;5.902;2022-10-30T11:27:45;23.70;57.80
38464;DHT22;24243;51.956;5.902;2022-10-30T11:30:15;23.70;57.80
38464;DHT22;24243;51.956;5.902;2022-10-30T11:32:41;23.70;57.70
38464;DHT22;24243;51.956;5.902;2022-10-30T11:37:33;23.70;57.60
38464;DHT22;24243;51.956;5.902;2022-10-30T11:40:06;23.70;57.60
38464;DHT22;24243;51.956;5.902;2022-10-30T11:42:41;23.70;57.50
38464;DHT22;24243;51.956;5.902;2022-10-30T11:45:15;23.70;57.40
38464;DHT22;24243;51.956;5.902;2022-10-30T11:47:41;23.80;57.30
38464;DHT22;24243;51.956;5.902;2022-10-30T11:50:17;23.80;57.10
38464;DHT22;24243;51.956;5.902;2022-10-30T11:52:44;23.80;57.10
38464;DHT22;24243;51.956;5.902;2022-10-30T11:55:17;23.90;57.10
38464;DHT22;24243;51.956;5.902;2022-10-30T11:57:44;23.90;57.00
38464;DHT22;24243;51.956;5.902;2022-10-30T12:00:18;23.90;56.90
38464;DHT22;24243;51.956;5.902;2022-10-30T12:02:45;23.90;56.80
38464;DHT22;24243;51.956;5.902;2022-10-30T12:07:48;24.00;56.70
38464;DHT22;24243;51.956;5.902;2022-10-30T12:10:24;24.00;56.70
38464;DHT22;24243;51.956;5.902;2022-10-30T12:12:50;24.00;56.80
38464;DHT22;24243;51.956;5.902;2022-10-30T12:17:49;24.00;56.80
38464;DHT22;24243;51.956;5.902;2022-10-30T12:20:15;24.00;56.80
38464;DHT22;24243;51.956;5.902;2022-10-30T12:22:41;24.00;56.80
38464;DHT22;24243;51.956;5.902;2022-10-30T12:25:14;24.00;56.80
38464;DHT22;24243;51.956;5.902;2022-10-30T12:27:41;24.00;56.90
38464;DHT22;24243;51.956;5.902;2022-10-30T12:30:13;24.00;56.90
38464;DHT22;24243;51.956;5.902;2022-10-30T12:35:14;23.90;56.90
38464;DHT22;24243;51.956;5.902;2022-10-30T12:37:42;23.90;57.00
38464;DHT22;24243;51.956;5.902;2022-10-30T12:40:13;23.90;57.00
38464;DHT22;24243;51.956;5.902;2022-10-30T12:42:41;23.90;57.00
38464;DHT22;24243;51.956;5.902;2022-10-30T12:45:13;23.90;56.90
38464;DHT22;24243;51.956;5.902;2022-10-30T12:48:14;23.80;56.90
38464;DHT22;24243;51.956;5.902;2022-10-30T12:50:39;23.90;56.90
38464;DHT22;24243;51.956;5.902;2022-10-30T12:53:20;23.80;57.00
38464;DHT22;24243;51.956;5.902;2022-10-30T12:55:50;23.80;57.00
38464;DHT22;24243;51.956;5.902;2022-10-30T13:01:08;23.70;57.00
38464;DHT22;24243;51.956;5.902;2022-10-30T13:04:36;23.70;57.10
38464;DHT22;24243;51.956;5.902;2022-10-30T13:06:32;23.70;57.10
38464;DHT22;24243;51.956;5.902;2022-10-30T13:12:07;23.60;57.20
38464;DHT22;24243;51.956;5.902;2022-10-30T13:17:12;23.60;57.20
38464;DHT22;24243;51.956;5.902;2022-10-30T13:19:42;23.60;57.30
38464;DHT22;24243;51.956;5.902;2022-10-30T13:24:58;23.50;57.30
38464;DHT22;24243;51.956;5.902;2022-10-30T13:27:27;23.50;57.30
38464;DHT22;24243;51.956;5.902;2022-10-30T13:30:05;23.50;57.30
38464;DHT22;24243;51.956;5.902;2022-10-30T13:32:38;23.50;57.30
38464;DHT22;24243;51.956;5.902;2022-10-30T13:35:26;23.50;57.20
38464;DHT22;24243;51.956;5.902;2022-10-30T13:37:59;23.60;57.20
38464;DHT22;24243;51.956;5.902;2022-10-30T13:40:31;23.50;57.10
38464;DHT22;24243;51.956;5.902;2022-10-30T13:45:40;23.50;57.10
38464;DHT22;24243;51.956;5.902;2022-10-30T13:53:00;23.50;57.00
38464;DHT22;24243;51.956;5.902;2022-10-30T13:55:28;23.50;56.90
38464;DHT22;24243;51.956;5.902;2022-10-30T14:00:58;23.50;57.00
38464;DHT22;24243;51.956;5.902;2022-10-30T14:03:43;23.50;57.00
38464;DHT22;24243;51.956;5.902;2022-10-30T14:11:04;23.40;56.90
38464;DHT22;24243;51.956;5.902;2022-10-30T14:16:34;23.30;57.00
38464;DHT22;24243;51.956;5.902;2022-10-30T14:19:05;23.30;57.10
38464;DHT22;24243;51.956;5.902;2022-10-30T14:21:38;23.30;57.20
38464;DHT22;24243;51.956;5.902;2022-10-30T14:26:35;23.20;57.20
38464;DHT22;24243;51.956;5.902;2022-10-30T14:29:03;23.20;57.30
38464;DHT22;24243;51.956;5.902;2022-10-30T14:31:46;23.20;57.40
38464;DHT22;24243;51.956;5.902;2022-10-30T14:34:39;23.10;57.40
38464;DHT22;24243;51.956;5.902;2022-10-30T14:36:57;23.10;57.40
38464;DHT22;24243;51.956;5.902;2022-10-30T14:39:26;23.10;57.50
38464;DHT22;24243;51.956;5.902;2022-10-30T14:42:03;23.10;57.50
38464;DHT22;24243;51.956;5.902;2022-10-30T14:47:02;23.00;57.60
38464;DHT22;24243;51.956;5.902;2022-10-30T14:55:13;23.00;57.90
38464;DHT22;24243;51.956;5.902;2022-10-30T14:57:42;23.00;57.90
38464;DHT22;24243;51.956;5.902;2022-10-30T15:00:26;22.90;57.90
38464;DHT22;24243;51.956;5.902;2022-10-30T15:07:52;22.90;58.10
38464;DHT22;24243;51.956;5.902;2022-10-30T15:10:28;22.90;58.10
38464;DHT22;24243;51.956;5.902;2022-10-30T15:15:20;22.80;58.20
38464;DHT22;24243;51.956;5.902;2022-10-30T15:17:47;22.80;58.30
38464;DHT22;24243;51.956;5.902;2022-10-30T15:22:42;22.80;58.50
38464;DHT22;24243;51.956;5.902;2022-10-30T15:25:18;22.80;58.60
38464;DHT22;24243;51.956;5.902;2022-10-30T15:27:45;22.80;58.60
38464;DHT22;24243;51.956;5.902;2022-10-30T15:30:13;22.70;58.60
38464;DHT22;24243;51.956;5.902;2022-10-30T15:32:41;22.80;58.70
38464;DHT22;24243;51.956;5.902;2022-10-30T15:35:17;22.70;58.70
38464;DHT22;24243;51.956;5.902;2022-10-30T15:40:21;22.70;58.80
38464;DHT22;24243;51.956;5.902;2022-10-30T15:42:47;22.70;58.80
38464;DHT22;24243;51.956;5.902;2022-10-30T15:45:15;22.60;58.90
38464;DHT22;24243;51.956;5.902;2022-10-30T15:47:49;22.60;59.00
38464;DHT22;24243;51.956;5.902;2022-10-30T15:50:18;22.60;59.10
38464;DHT22;24243;51.956;5.902;2022-10-30T15:52:46;22.50;59.10
38464;DHT22;24243;51.956;5.902;2022-10-30T15:55:13;22.50;59.20
38464;DHT22;24243;51.956;5.902;2022-10-30T15:57:40;22.50;59.30
38464;DHT22;24243;51.956;5.902;2022-10-30T16:00:17;22.50;59.50
38464;DHT22;24243;51.956;5.902;2022-10-30T16:02:46;22.50;59.50
38464;DHT22;24243;51.956;5.902;2022-10-30T16:05:20;22.40;59.60
38464;DHT22;24243;51.956;5.902;2022-10-30T16:07:46;22.40;59.70
38464;DHT22;24243;51.956;5.902;2022-10-30T16:10:14;22.30;59.70
38464;DHT22;24243;51.956;5.902;2022-10-30T16:12:41;22.30;59.80
38464;DHT22;24243;51.956;5.902;2022-10-30T16:15:07;22.30;59.90
38464;DHT22;24243;51.956;5.902;2022-10-30T16:17:40;22.30;60.00
38464;DHT22;24243;51.956;5.902;2022-10-30T16:20:05;22.30;59.90
38464;DHT22;24243;51.956;5.902;2022-10-30T16:22:35;22.40;59.90
38464;DHT22;24243;51.956;5.902;2022-10-30T16:25:01;22.40;59.80
38464;DHT22;24243;51.956;5.902;2022-10-30T16:27:30;22.50;59.70
38464;DHT22;24243;51.956;5.902;2022-10-30T16:29:56;22.50;59.60
38464;DHT22;24243;51.956;5.902;2022-10-30T16:32:23;22.50;59.50
38464;DHT22;24243;51.956;5.902;2022-10-30T16:34:49;22.60;59.50
38464;DHT22;24243;51.956;5.902;2022-10-30T16:37:19;22.50;59.40
38464;DHT22;24243;51.956;5.902;2022-10-30T16:39:47;22.60;59.50
38464;DHT22;24243;51.956;5.902;2022-10-30T16:42:23;22.50;59.50
38464;DHT22;24243;51.956;5.902;2022-10-30T16:44:49;22.50;59.50
38464;DHT22;24243;51.956;5.902;2022-10-30T16:49:42;22.50;59.50
38464;DHT22;24243;51.956;5.902;2022-10-30T16:52:09;22.50;59.50
38464;DHT22;24243;51.956;5.902;2022-10-30T16:54:37;22.40;59.50
38464;DHT22;24243;51.956;5.902;2022-10-30T16:57:03;22.40;59.50
38464;DHT22;24243;51.956;5.902;2022-10-30T16:59:37;22.40;59.50
38464;DHT22;24243;51.956;5.902;2022-10-30T17:02:15;22.50;59.50
38464;DHT22;24243;51.956;5.902;2022-10-30T17:04:42;22.50;59.50
38464;DHT22;24243;51.956;5.902;2022-10-30T17:07:16;22.50;59.40
38464;DHT22;24243;51.956;5.902;2022-10-30T17:09:43;22.50;59.40
38464;DHT22;24243;51.956;5.902;2022-10-30T17:14:40;22.50;59.40
38464;DHT22;24243;51.956;5.902;2022-10-30T17:17:40;22.50;59.40
38464;DHT22;24243;51.956;5.902;2022-10-30T17:20:03;22.50;59.40
38464;DHT22;24243;51.956;5.902;2022-10-30T17:22:30;22.60;59.40
38464;DHT22;24243;51.956;5.902;2022-10-30T17:24:56;22.50;59.40
38464;DHT22;24243;51.956;5.902;2022-10-30T17:27:27;22.50;59.40
38464;DHT22;24243;51.956;5.902;2022-10-30T17:29:53;22.60;59.40
38464;DHT22;24243;51.956;5.902;2022-10-30T17:32:19;22.60;59.40
38464;DHT22;24243;51.956;5.902;2022-10-30T17:34:46;22.60;59.40
38464;DHT22;24243;51.956;5.902;2022-10-30T17:37:12;22.60;59.40
38464;DHT22;24243;51.956;5.902;2022-10-30T17:39:37;22.60;59.40
38464;DHT22;24243;51.956;5.902;2022-10-30T17:42:03;22.70;59.40
38464;DHT22;24243;51.956;5.902;2022-10-30T17:44:30;22.70;59.40
38464;DHT22;24243;51.956;5.902;2022-10-30T17:46:56;22.70;59.50